Time;durP1;ratioP1;P1;durP2;ratioP2;P2;SDS_P1;SDS_P2;PMS_P1;PMS_P2;Temp;Humidity;BMP_temperature;BMP_pressure;BME280_temperature;BME280_humidity;BME280_pressure;Samples;Min_cycle;Max_cycle;Signal;HPM_P1;HPM_P2
2021/06/17 00:02:07;;;;;;;7.55;5.00;;;22.20;88.30;;;;;;4987822;28;20038;-64
2021/06/17 00:04:33;;;;;;;9.35;5.97;;;22.00;89.50;;;;;;4986761;28;20037;-62
2021/06/17 00:06:59;;;;;;;8.07;4.97;;;21.90;90.50;;;;;;4986077;28;20030;-63
2021/06/17 00:09:25;;;;;;;8.95;5.40;;;21.90;90.40;;;;;;4988798;28;20018;-63
2021/06/17 00:11:51;;;;;;;8.40;5.43;;;21.80;90.70;;;;;;4988491;28;20049;-62
2021/06/17 00:14:17;;;;;;;9.10;4.97;;;21.90;90.50;;;;;;4979985;28;20429;-63
2021/06/17 00:16:44;;;;;;;7.13;5.28;;;21.90;90.10;;;;;;4985364;28;20034;-62
2021/06/17 00:19:09;;;;;;;7.72;5.10;;;22.00;89.40;;;;;;4972317;28;20381;-62
2021/06/17 00:21:35;;;;;;;8.00;4.70;;;22.00;89.20;;;;;;4985696;28;20045;-63
2021/06/17 00:24:00;;;;;;;6.78;5.03;;;22.10;88.70;;;;;;4987363;28;20030;-63
2021/06/17 00:26:26;;;;;;;8.15;5.07;;;22.20;88.50;;;;;;4965321;28;20041;-64
2021/06/17 00:28:52;;;;;;;21.80;6.28;;;22.20;88.70;;;;;;4989347;28;20030;-63
2021/06/17 00:31:18;;;;;;;6.30;4.93;;;22.10;89.50;;;;;;4986652;28;20019;-64
2021/06/17 00:33:44;;;;;;;7.07;4.90;;;22.10;89.00;;;;;;4987720;28;20045;-63
2021/06/17 00:36:10;;;;;;;9.07;5.35;;;22.10;89.00;;;;;;4991549;28;20026;-62
2021/06/17 00:38:35;;;;;;;5.82;4.93;;;22.10;89.00;;;;;;4991585;28;20041;-63
2021/06/17 00:41:01;;;;;;;5.45;4.50;;;22.00;89.10;;;;;;4990792;28;20488;-63
2021/06/17 00:43:27;;;;;;;7.30;4.93;;;22.00;89.60;;;;;;4991036;28;20041;-63
2021/06/17 00:45:53;;;;;;;7.15;5.05;;;22.00;89.20;;;;;;4985829;28;20126;-61
2021/06/17 00:48:19;;;;;;;5.93;5.25;;;22.00;89.50;;;;;;4991180;28;20437;-62
2021/06/17 00:50:50;;;;;;;6.40;4.80;;;21.90;90.40;;;;;;4986829;28;20129;-63
2021/06/17 00:53:21;;;;;;;6.82;5.47;;;21.90;90.40;;;;;;4988912;28;20028;-62
2021/06/17 00:55:47;;;;;;;10.18;4.88;;;21.90;90.20;;;;;;4988311;28;20034;-64
2021/06/17 00:58:13;;;;;;;9.30;4.95;;;21.90;90.10;;;;;;4983197;28;20042;-63
2021/06/17 01:00:39;;;;;;;6.90;4.65;;;21.90;90.10;;;;;;4990525;28;20390;-63
2021/06/17 01:03:05;;;;;;;5.65;4.80;;;21.90;90.10;;;;;;4991162;28;20373;-62
2021/06/17 01:05:31;;;;;;;7.00;5.10;;;21.80;90.60;;;;;;4989949;28;20523;-63
2021/06/17 01:08:03;;;;;;;5.68;4.60;;;21.70;90.70;;;;;;4992003;28;20034;-63
2021/06/17 01:10:40;;;;;;;10.60;4.72;;;21.80;90.50;;;;;;4991676;28;20448;-63
2021/06/17 01:13:28;;;;;;;5.65;4.80;;;21.80;90.50;;;;;;4986887;28;20033;-62
2021/06/17 01:16:12;;;;;;;5.53;4.90;;;21.80;90.50;;;;;;4989503;28;20037;-63
2021/06/17 01:18:46;;;;;;;5.00;4.47;;;21.80;90.60;;;;;;4972202;28;20063;-63
2021/06/17 01:21:31;;;;;;;8.00;4.57;;;21.70;91.10;;;;;;4989905;28;20084;-63
2021/06/17 01:24:17;;;;;;;13.15;5.72;;;21.70;90.40;;;;;;4987346;28;20038;-63
2021/06/17 01:27:13;;;;;;;7.82;5.00;;;21.80;90.60;;;;;;4990163;28;20034;-61
2021/06/17 01:29:41;;;;;;;8.38;5.07;;;21.80;90.50;;;;;;4987868;28;20117;-63
2021/06/17 01:32:09;;;;;;;5.25;4.75;;;21.80;90.30;;;;;;4991063;28;20026;-61
2021/06/17 01:34:35;;;;;;;8.45;5.07;;;21.80;90.40;;;;;;4993020;28;20037;-63
2021/06/17 01:37:07;;;;;;;7.15;4.63;;;21.80;90.40;;;;;;4990484;28;20037;-62
2021/06/17 01:39:36;;;;;;;5.60;4.50;;;21.80;90.40;;;;;;4989770;28;20038;-61
2021/06/17 01:42:04;;;;;;;9.70;5.28;;;21.90;90.40;;;;;;4988134;28;20048;-62
2021/06/17 01:44:32;;;;;;;6.75;4.57;;;21.90;90.30;;;;;;4986702;28;20033;-63
2021/06/17 01:46:59;;;;;;;5.55;4.65;;;21.90;90.30;;;;;;4988130;28;20060;-62
2021/06/17 01:49:25;;;;;;;8.38;4.70;;;21.90;90.20;;;;;;4987538;28;20030;-63
2021/06/17 01:51:52;;;;;;;8.30;5.25;;;21.90;90.10;;;;;;4989447;28;20026;-63
2021/06/17 01:54:21;;;;;;;5.78;4.70;;;21.90;90.20;;;;;;4987444;28;20030;-61
2021/06/17 01:56:50;;;;;;;5.53;4.18;;;21.90;90.20;;;;;;4990006;28;20064;-63
2021/06/17 01:59:17;;;;;;;6.00;4.95;;;21.80;90.20;;;;;;4982269;28;20038;-61
2021/06/17 02:01:43;;;;;;;4.75;4.25;;;21.80;90.30;;;;;;4986626;28;20117;-62
2021/06/17 02:04:10;;;;;;;8.82;4.82;;;21.70;90.50;;;;;;4988723;28;20034;-62
2021/06/17 02:06:36;;;;;;;6.00;4.50;;;21.70;90.50;;;;;;4990042;28;20404;-62
2021/06/17 02:09:05;;;;;;;9.50;4.95;;;21.70;90.60;;;;;;4990158;28;20106;-63
2021/06/17 02:11:31;;;;;;;5.35;4.65;;;21.70;90.60;;;;;;4990809;28;20109;-63
2021/06/17 02:13:58;;;;;;;8.70;4.90;;;21.60;90.50;;;;;;4989852;28;20369;-63
2021/06/17 02:16:26;;;;;;;5.88;4.28;;;21.60;91.00;;;;;;4994406;28;20026;-63
2021/06/17 02:18:54;;;;;;;9.15;4.93;;;21.60;90.80;;;;;;4971096;28;20460;-62
2021/06/17 02:21:20;;;;;;;5.05;4.07;;;21.60;90.90;;;;;;4990619;28;20034;-61
2021/06/17 02:23:51;;;;;;;11.27;5.57;;;21.70;90.80;;;;;;4989175;28;20065;-62
2021/06/17 02:26:18;;;;;;;8.68;5.00;;;21.60;90.80;;;;;;4989238;28;20034;-62
2021/06/17 02:28:46;;;;;;;8.90;4.68;;;21.60;91.10;;;;;;4990399;28;20038;-62
2021/06/17 02:31:15;;;;;;;6.75;4.80;;;21.60;91.00;;;;;;4988927;28;20602;-63
2021/06/17 02:33:41;;;;;;;12.73;5.13;;;21.50;91.00;;;;;;4986996;28;20611;-61
2021/06/17 02:36:08;;;;;;;7.35;4.85;;;21.50;91.10;;;;;;4987895;28;20041;-63
2021/06/17 02:38:40;;;;;;;10.40;4.70;;;21.50;91.10;;;;;;4989435;28;20038;-62
2021/06/17 02:41:10;;;;;;;5.40;4.25;;;21.40;91.10;;;;;;4992196;28;20170;-62
2021/06/17 02:43:40;;;;;;;5.55;4.40;;;21.50;91.10;;;;;;4986877;28;20113;-63
2021/06/17 02:46:06;;;;;;;13.48;4.70;;;21.40;91.20;;;;;;4988468;28;20057;-63
2021/06/17 02:48:32;;;;;;;9.07;4.80;;;21.40;91.30;;;;;;4987725;28;20514;-66
2021/06/17 02:50:58;;;;;;;7.43;4.80;;;21.40;91.30;;;;;;4988855;28;20066;-63
2021/06/17 02:53:23;;;;;;;6.97;4.65;;;21.40;91.30;;;;;;4990351;28;20105;-62
2021/06/17 02:55:50;;;;;;;5.25;4.70;;;21.40;91.30;;;;;;4988811;28;20481;-61
2021/06/17 02:58:23;;;;;;;5.38;4.80;;;21.40;91.30;;;;;;4985699;28;20037;-62
2021/06/17 03:00:52;;;;;;;;;;;21.40;91.40;;;;;;4986828;28;20026;-63
2021/06/17 03:03:28;;;;;;;8.45;4.57;;;21.30;92.00;;;;;;4991280;28;19945;-62
2021/06/17 03:06:05;;;;;;;5.72;4.75;;;21.30;91.60;;;;;;4986749;28;20026;-62
2021/06/17 03:08:38;;;;;;;6.45;4.90;;;21.30;91.60;;;;;;4988767;28;20042;-63
2021/06/17 03:11:11;;;;;;;9.65;4.95;;;21.30;91.50;;;;;;4988655;28;20114;-62
2021/06/17 03:13:43;;;;;;;6.25;4.47;;;21.30;91.60;;;;;;4989148;28;20034;-62
2021/06/17 03:16:13;;;;;;;6.47;4.72;;;21.30;91.40;;;;;;4989550;28;20038;-62
2021/06/17 03:18:42;;;;;;;12.35;4.60;;;21.30;91.50;;;;;;4971237;28;20066;-62
2021/06/17 03:21:08;;;;;;;8.27;5.45;;;21.30;92.00;;;;;;4986556;28;20038;-62
2021/06/17 03:23:36;;;;;;;8.05;4.95;;;21.30;91.50;;;;;;4988184;28;20030;-62
2021/06/17 03:26:06;;;;;;;7.18;4.72;;;21.30;91.40;;;;;;4986522;28;20030;-62
2021/06/17 03:28:33;;;;;;;19.73;6.97;;;21.30;91.40;;;;;;4983178;28;20118;-62
2021/06/17 03:31:00;;;;;;;6.95;5.07;;;21.30;91.60;;;;;;4985691;28;20503;-62
2021/06/17 03:33:28;;;;;;;6.82;4.30;;;21.30;91.40;;;;;;4989316;28;20423;-62
2021/06/17 03:35:54;;;;;;;6.75;4.82;;;21.30;91.30;;;;;;4990041;28;20018;-63
2021/06/17 03:38:22;;;;;;;8.02;4.60;;;21.40;91.30;;;;;;4988556;28;20472;-63
2021/06/17 03:40:49;;;;;;;7.50;4.80;;;21.30;91.40;;;;;;4988891;28;20089;-62
2021/06/17 03:43:16;;;;;;;5.88;5.25;;;21.30;91.40;;;;;;4988321;28;20455;-63
2021/06/17 03:45:44;;;;;;;6.43;4.68;;;21.30;91.40;;;;;;4989880;28;20030;-63
2021/06/17 03:48:11;;;;;;;4.82;3.60;;;21.40;91.30;;;;;;4986897;28;20037;-63
2021/06/17 03:50:38;;;;;;;4.93;4.25;;;21.40;91.30;;;;;;4986699;28;20037;-64
2021/06/17 03:53:04;;;;;;;5.65;4.22;;;21.40;91.00;;;;;;4989577;28;20023;-62
2021/06/17 03:55:32;;;;;;;6.90;4.35;;;21.50;91.00;;;;;;4984533;28;20035;-63
2021/06/17 03:57:58;;;;;;;7.85;3.72;;;21.50;90.80;;;;;;4990509;28;20030;-63
2021/06/17 04:00:26;;;;;;;5.80;4.25;;;21.60;90.50;;;;;;4987937;28;20030;-62
2021/06/17 04:02:54;;;;;;;9.35;4.53;;;21.70;90.40;;;;;;4988704;28;20484;-62
2021/06/17 04:05:20;;;;;;;15.70;4.63;;;21.70;90.20;;;;;;4983678;28;20084;-63
2021/06/17 04:07:47;;;;;;;7.90;4.13;;;21.80;90.40;;;;;;4987477;28;20023;-64
2021/06/17 04:10:15;;;;;;;7.25;4.40;;;21.80;90.10;;;;;;4982798;28;20441;-63
2021/06/17 04:12:42;;;;;;;6.10;4.13;;;21.90;90.00;;;;;;4990065;28;20030;-63
2021/06/17 04:15:09;;;;;;;5.55;4.85;;;22.00;89.90;;;;;;4988304;28;20154;-63
2021/06/17 04:17:41;;;;;;;7.50;4.47;;;22.00;89.40;;;;;;4989540;28;20034;-63
2021/06/17 04:20:11;;;;;;;7.97;4.57;;;22.10;89.40;;;;;;4970396;28;20046;-62
2021/06/17 04:22:43;;;;;;;7.72;4.50;;;22.20;89.10;;;;;;4988745;28;20057;-63
2021/06/17 04:25:10;;;;;;;5.43;4.55;;;22.20;89.20;;;;;;4986952;28;20022;-63
2021/06/17 04:27:37;;;;;;;5.40;4.20;;;22.30;89.90;;;;;;4988754;28;20025;-63
2021/06/17 04:30:04;;;;;;;6.15;4.00;;;22.40;88.90;;;;;;4987111;28;20033;-63
2021/06/17 04:32:30;;;;;;;5.13;4.20;;;22.60;88.40;;;;;;4979917;28;20046;-63
2021/06/17 04:34:57;;;;;;;8.10;4.00;;;23.40;86.30;;;;;;4991017;28;20097;-63
2021/06/17 04:37:26;;;;;;;8.63;3.55;;;24.60;83.90;;;;;;4987946;28;20031;-61
2021/06/17 04:39:55;;;;;;;5.57;3.35;;;26.00;78.70;;;;;;4986247;28;20125;-63
2021/06/17 04:42:22;;;;;;;4.72;3.00;;;27.20;74.50;;;;;;4988680;28;20037;-62
2021/06/17 04:44:47;;;;;;;4.93;3.35;;;28.10;71.80;;;;;;4987729;28;20402;-62
2021/06/17 04:47:17;;;;;;;6.13;3.70;;;29.00;67.90;;;;;;4981441;28;20026;-63
2021/06/17 04:49:43;;;;;;;6.63;3.00;;;29.90;65.40;;;;;;4985388;28;20864;-62
2021/06/17 04:52:15;;;;;;;5.80;3.15;;;30.40;63.50;;;;;;4988391;28;20031;-63
2021/06/17 04:54:40;;;;;;;4.38;3.38;;;31.00;61.50;;;;;;4986250;28;20114;-62
2021/06/17 04:57:06;;;;;;;6.88;3.30;;;31.60;59.20;;;;;;4989779;28;20109;-62
2021/06/17 04:59:33;;;;;;;4.68;2.60;;;32.00;60.40;;;;;;4986352;28;20045;-62
2021/06/17 05:02:00;;;;;;;5.90;3.28;;;32.70;58.00;;;;;;4984091;28;20505;-62
2021/06/17 05:04:26;;;;;;;7.65;3.20;;;32.90;56.90;;;;;;4983717;28;20400;-62
2021/06/17 05:12:10;;;;;;;3.65;2.90;;;33.40;54.60;;;;;;4984190;28;20160;-63
2021/06/17 05:14:36;;;;;;;8.07;3.20;;;33.30;54.80;;;;;;4985841;28;20073;-63
2021/06/17 05:17:02;;;;;;;5.57;3.00;;;33.60;54.10;;;;;;4987034;28;20515;-62
2021/06/17 05:19:27;;;;;;;6.82;2.90;;;34.40;53.00;;;;;;4970343;28;20046;-63
2021/06/17 05:21:53;;;;;;;6.25;3.13;;;35.10;51.80;;;;;;4991059;28;20504;-62
2021/06/17 05:24:18;;;;;;;4.07;2.97;;;34.60;50.90;;;;;;4990964;28;20037;-60
2021/06/17 05:26:44;;;;;;;6.10;2.63;;;34.60;51.20;;;;;;4991968;28;20026;-62
2021/06/17 05:29:10;;;;;;;5.70;2.88;;;34.70;51.40;;;;;;4990000;28;20041;-62
2021/06/17 05:31:35;;;;;;;3.78;2.80;;;35.10;52.10;;;;;;4989432;28;20034;-62
2021/06/17 05:34:01;;;;;;;7.18;3.13;;;35.40;51.20;;;;;;4989589;28;20108;-62
2021/06/17 05:36:26;;;;;;;8.85;3.13;;;35.50;51.30;;;;;;4990099;28;20437;-63
2021/06/17 05:38:52;;;;;;;5.65;2.55;;;36.00;49.80;;;;;;4992679;28;20030;-63
2021/06/17 05:41:18;;;;;;;4.80;3.20;;;36.30;49.40;;;;;;4988906;28;20565;-63
2021/06/17 05:43:43;;;;;;;5.60;3.25;;;36.50;48.40;;;;;;4991229;28;20085;-63
2021/06/17 05:46:09;;;;;;;6.25;3.13;;;36.20;49.30;;;;;;4989416;28;20121;-63
2021/06/17 05:48:36;;;;;;;4.63;2.75;;;36.90;48.70;;;;;;4992597;28;20026;-62
2021/06/17 05:51:01;;;;;;;8.50;3.13;;;37.20;47.40;;;;;;4984065;28;20058;-61
2021/06/17 05:53:27;;;;;;;6.07;3.00;;;37.10;48.00;;;;;;4988282;28;20480;-63
2021/06/17 05:55:52;;;;;;;6.18;2.83;;;36.60;47.40;;;;;;4987274;28;20050;-63
2021/06/17 05:58:18;;;;;;;8.45;3.05;;;37.00;48.40;;;;;;4989676;28;20472;-62
2021/06/17 06:00:43;;;;;;;3.83;3.17;;;37.40;47.70;;;;;;4990762;28;20092;-62
2021/06/17 06:03:09;;;;;;;4.97;2.92;;;37.70;46.50;;;;;;4992657;28;20400;-63
2021/06/17 06:05:35;;;;;;;9.63;2.90;;;37.40;47.00;;;;;;4990211;28;20079;-63
2021/06/17 06:08:07;;;;;;;4.15;2.78;;;37.40;47.50;;;;;;4990365;28;20023;-62
2021/06/17 06:10:33;;;;;;;6.63;2.92;;;37.70;46.50;;;;;;4989855;28;20070;-62
2021/06/17 06:12:58;;;;;;;5.68;3.10;;;37.90;47.30;;;;;;4995125;28;20072;-63
2021/06/17 06:15:24;;;;;;;3.97;3.00;;;38.60;45.10;;;;;;4990156;28;20473;-62
2021/06/17 06:17:50;;;;;;;8.45;2.70;;;38.60;45.90;;;;;;4989366;28;20552;-63
2021/06/17 06:20:15;;;;;;;8.73;3.42;;;38.90;45.80;;;;;;4971647;28;20610;-62
2021/06/17 06:22:42;;;;;;;6.07;2.60;;;39.00;45.20;;;;;;4989473;28;20385;-62
2021/06/17 06:25:09;;;;;;;5.10;3.10;;;38.60;45.70;;;;;;4988063;28;20089;-62
2021/06/17 06:27:34;;;;;;;9.32;3.13;;;38.90;45.40;;;;;;4990929;28;20037;-63
2021/06/17 06:30:03;;;;;;;5.13;2.80;;;38.90;45.70;;;;;;4987810;28;20018;-62
2021/06/17 06:32:30;;;;;;;4.90;2.80;;;38.60;46.50;;;;;;4992670;28;20022;-63
2021/06/17 06:34:57;;;;;;;4.72;3.10;;;39.00;45.40;;;;;;4987450;28;20042;-62
2021/06/17 06:37:23;;;;;;;3.25;2.83;;;39.10;45.20;;;;;;4985829;28;20035;-63
2021/06/17 06:39:49;;;;;;;5.00;3.03;;;39.20;44.80;;;;;;4985830;28;20042;-63
2021/06/17 06:42:14;;;;;;;8.50;2.90;;;38.90;43.90;;;;;;4989190;28;20041;-63
2021/06/17 06:44:40;;;;;;;10.98;3.20;;;38.80;44.50;;;;;;4990427;28;20134;-63
2021/06/17 06:47:05;;;;;;;7.15;3.25;;;38.90;45.90;;;;;;4989316;28;20053;-63
2021/06/17 06:49:31;;;;;;;5.93;2.80;;;38.40;45.30;;;;;;4988289;28;20031;-62
2021/06/17 06:51:57;;;;;;;7.55;3.08;;;39.30;45.60;;;;;;4986059;28;20073;-63
2021/06/17 06:54:22;;;;;;;7.72;3.00;;;39.20;43.80;;;;;;4984550;28;20395;-63
2021/06/17 06:56:48;;;;;;;6.95;2.60;;;39.30;44.60;;;;;;4989013;28;20093;-63
2021/06/17 06:59:13;;;;;;;5.35;2.78;;;39.40;45.80;;;;;;4989128;28;20030;-62
2021/06/17 07:01:39;;;;;;;4.88;2.90;;;40.20;45.70;;;;;;4989753;28;20455;-63
2021/06/17 07:04:05;;;;;;;6.72;2.75;;;40.40;43.80;;;;;;4990240;28;20034;-63
2021/06/17 07:06:31;;;;;;;3.42;2.78;;;40.10;43.70;;;;;;4985281;28;20046;-63
2021/06/17 07:08:56;;;;;;;5.07;3.05;;;40.30;46.10;;;;;;4988933;28;20046;-63
2021/06/17 07:11:22;;;;;;;5.13;2.95;;;40.80;43.10;;;;;;4989711;28;20469;-64
2021/06/17 07:13:49;;;;;;;3.53;3.08;;;40.90;43.00;;;;;;4989931;28;20103;-64
2021/06/17 07:16:14;;;;;;;4.55;3.30;;;40.80;42.80;;;;;;4986647;28;20038;-63
2021/06/17 07:18:40;;;;;;;11.70;2.97;;;40.40;44.30;;;;;;4990606;28;20038;-63
2021/06/17 07:21:06;;;;;;;7.30;3.83;;;40.20;45.00;;;;;;4971318;28;20110;-64
2021/06/17 07:23:33;;;;;;;4.53;2.90;;;40.70;43.20;;;;;;4987293;28;20034;-63
2021/06/17 07:25:59;;;;;;;7.13;3.50;;;40.70;44.00;;;;;;4989219;28;20043;-63
2021/06/17 07:28:25;;;;;;;6.15;3.03;;;41.20;43.10;;;;;;4982900;28;20161;-63
2021/06/17 07:30:50;;;;;;;5.50;3.05;;;40.80;43.00;;;;;;4985243;28;20094;-64
2021/06/17 07:33:16;;;;;;;8.10;3.13;;;41.40;42.70;;;;;;4987933;28;20104;-63
2021/06/17 07:35:42;;;;;;;5.47;2.88;;;40.70;42.30;;;;;;4981621;28;20048;-64
2021/06/17 07:38:07;;;;;;;3.17;2.83;;;40.80;42.00;;;;;;4986683;28;20108;-64
2021/06/17 07:40:34;;;;;;;6.10;3.50;;;41.70;42.90;;;;;;4986829;28;20564;-63
2021/06/17 07:43:00;;;;;;;7.45;2.83;;;41.40;41.30;;;;;;4987432;28;20411;-62
2021/06/17 07:45:30;;;;;;;4.40;2.60;;;41.80;41.80;;;;;;4988739;28;20031;-63
2021/06/17 07:47:55;;;;;;;4.95;3.05;;;42.00;42.20;;;;;;4988194;28;20160;-62
2021/06/17 07:50:21;;;;;;;3.40;2.78;;;41.40;42.20;;;;;;4989703;28;20113;-63
2021/06/17 07:52:47;;;;;;;6.35;2.72;;;40.90;42.80;;;;;;4988978;28;20034;-63
2021/06/17 07:55:13;;;;;;;7.10;3.00;;;41.80;41.70;;;;;;4989753;28;20488;-63
2021/06/17 07:57:38;;;;;;;6.20;2.90;;;41.80;41.10;;;;;;4980918;28;20026;-63
2021/06/17 08:00:06;;;;;;;4.53;2.90;;;42.20;41.80;;;;;;4985295;28;20026;-64
2021/06/17 08:02:32;;;;;;;6.03;3.05;;;41.90;41.10;;;;;;4984885;28;20023;-63
2021/06/17 08:04:57;;;;;;;4.10;2.95;;;41.20;43.50;;;;;;4989134;28;20369;-64
2021/06/17 08:07:23;;;;;;;9.18;3.65;;;42.00;41.70;;;;;;4989209;28;20361;-62
2021/06/17 08:09:48;;;;;;;3.47;2.95;;;41.90;42.80;;;;;;4987546;28;20056;-62
2021/06/17 08:12:14;;;;;;;5.30;3.28;;;42.40;42.10;;;;;;4979165;28;20027;-60
2021/06/17 08:14:40;;;;;;;3.20;2.80;;;41.50;41.20;;;;;;4989152;28;20034;-61
2021/06/17 08:17:05;;;;;;;4.57;2.90;;;41.80;42.10;;;;;;4988081;28;20038;-62
2021/06/17 08:19:32;;;;;;;8.27;2.83;;;42.00;40.90;;;;;;4965117;28;20388;-61
2021/06/17 08:22:06;;;;;;;7.53;3.00;;;40.90;40.80;;;;;;4986351;28;20401;-61
2021/06/17 08:24:36;;;;;;;5.47;3.10;;;40.70;40.60;;;;;;4989426;28;20381;-62
2021/06/17 08:27:03;;;;;;;5.95;3.28;;;40.50;42.90;;;;;;4983259;28;20034;-63
2021/06/17 08:29:29;;;;;;;3.80;2.63;;;40.20;42.50;;;;;;4986016;28;20026;-63
2021/06/17 08:31:54;;;;;;;8.07;2.75;;;41.00;43.00;;;;;;4983482;28;20507;-64
2021/06/17 08:34:20;;;;;;;4.10;2.58;;;41.60;42.60;;;;;;4988543;28;20022;-60
2021/06/17 08:36:46;;;;;;;7.53;3.17;;;41.90;41.80;;;;;;4994936;28;20026;-63
2021/06/17 08:39:11;;;;;;;6.55;3.10;;;41.50;41.30;;;;;;4980580;28;20029;-62
2021/06/17 08:41:37;;;;;;;4.97;3.25;;;41.10;41.60;;;;;;4986886;28;20038;-63
2021/06/17 08:44:03;;;;;;;3.90;3.13;;;41.60;42.10;;;;;;4986091;28;20556;-62
2021/06/17 08:46:29;;;;;;;3.40;2.58;;;41.20;42.90;;;;;;4986292;28;20030;-62
2021/06/17 08:48:54;;;;;;;3.55;2.78;;;41.50;41.60;;;;;;4986114;28;20023;-63
2021/06/17 08:51:20;;;;;;;5.78;2.92;;;41.10;41.70;;;;;;4984874;28;20045;-62
2021/06/17 08:53:50;;;;;;;4.20;2.83;;;40.90;43.10;;;;;;4983958;28;20500;-62
2021/06/17 08:56:16;;;;;;;4.70;3.10;;;41.20;42.90;;;;;;4995388;28;20376;-62
2021/06/17 08:58:41;;;;;;;7.22;4.22;;;41.50;42.00;;;;;;4986947;28;20065;-62
2021/06/17 09:01:11;;;;;;;4.95;2.83;;;41.70;41.90;;;;;;4990391;28;20034;-62
2021/06/17 09:03:44;;;;;;;6.38;2.80;;;41.10;41.50;;;;;;4984841;28;20389;-62
2021/06/17 09:06:11;;;;;;;6.85;2.90;;;40.60;42.30;;;;;;4990717;28;20026;-62
2021/06/17 09:08:36;;;;;;;7.90;2.90;;;40.10;43.20;;;;;;4999826;28;20102;-62
2021/06/17 09:11:20;;;;;;;3.63;3.00;;;40.10;43.60;;;;;;4995284;28;20034;-61
2021/06/17 09:13:46;;;;;;;3.83;2.67;;;39.60;43.10;;;;;;4991525;28;20018;-62
2021/06/17 09:16:27;;;;;;;6.65;2.63;;;39.50;44.30;;;;;;5001634;28;20022;-62
2021/06/17 09:18:53;;;;;;;7.60;3.60;;;39.20;45.60;;;;;;4999156;28;21717;-62
2021/06/17 09:21:18;;;;;;;11.00;3.30;;;39.20;46.60;;;;;;4981539;28;20728;-62
2021/06/17 09:23:48;;;;;;;7.15;3.30;;;39.60;45.40;;;;;;5001415;28;20113;-62
2021/06/17 09:26:20;;;;;;;9.77;3.03;;;39.30;47.50;;;;;;4975951;28;20050;-63
2021/06/17 09:28:54;;;;;;;6.50;3.63;;;39.60;45.40;;;;;;4991373;28;20029;-61
2021/06/17 09:31:25;;;;;;;3.42;2.42;;;39.80;45.30;;;;;;4990365;28;20035;-63
2021/06/17 09:33:51;;;;;;;7.45;2.90;;;40.10;45.60;;;;;;4984411;28;20377;-62
2021/06/17 09:36:21;;;;;;;5.05;3.17;;;39.60;47.60;;;;;;4979612;28;20613;-63
2021/06/17 09:38:52;;;;;;;6.35;2.85;;;40.00;45.60;;;;;;4988813;28;20026;-63
2021/06/17 09:41:39;;;;;;;4.00;2.67;;;40.10;44.50;;;;;;4991510;28;20038;-61
2021/06/17 09:44:06;;;;;;;4.97;3.03;;;40.20;45.00;;;;;;4990674;28;20026;-63
2021/06/17 09:46:33;;;;;;;3.92;2.83;;;39.90;45.00;;;;;;4992087;28;20068;-62
2021/06/17 09:49:07;;;;;;;6.50;2.97;;;39.80;44.10;;;;;;4987939;28;20047;-62
2021/06/17 09:51:37;;;;;;;3.17;2.65;;;39.70;44.20;;;;;;4984199;28;20169;-61
2021/06/17 09:54:13;;;;;;;6.72;3.55;;;39.60;45.40;;;;;;4988707;28;20026;-62
2021/06/17 09:56:39;;;;;;;5.80;3.05;;;40.10;45.00;;;;;;4992131;28;20421;-62
2021/06/17 09:59:07;;;;;;;8.35;3.05;;;40.50;45.40;;;;;;4988784;28;20157;-62
2021/06/17 10:01:37;;;;;;;4.70;2.90;;;40.90;44.20;;;;;;4982459;28;20034;-61
2021/06/17 10:04:05;;;;;;;3.65;2.60;;;40.70;44.40;;;;;;4986877;28;20578;-62
2021/06/17 10:06:32;;;;;;;6.20;3.33;;;40.80;44.30;;;;;;4987031;28;20449;-62
2021/06/17 10:08:57;;;;;;;3.58;2.92;;;40.50;43.70;;;;;;4994977;28;20026;-62
2021/06/17 10:11:23;;;;;;;5.90;3.10;;;40.10;44.50;;;;;;4984501;28;20098;-61
2021/06/17 10:13:50;;;;;;;3.10;2.63;;;39.90;44.50;;;;;;4989928;28;20062;-61
2021/06/17 10:16:17;;;;;;;5.13;2.85;;;39.50;44.50;;;;;;4986962;28;20032;-61
2021/06/17 10:18:47;;;;;;;4.65;2.65;;;38.70;44.00;;;;;;4988972;28;20407;-62
2021/06/17 10:21:16;;;;;;;3.70;2.60;;;38.60;45.40;;;;;;4991236;28;20499;-63
2021/06/17 10:23:43;;;;;;;2.67;2.40;;;38.00;43.70;;;;;;4988738;28;20488;-62
2021/06/17 10:26:09;;;;;;;4.88;2.65;;;37.80;47.50;;;;;;4976753;28;20045;-62
2021/06/17 10:28:40;;;;;;;4.72;3.03;;;37.60;45.00;;;;;;4985266;28;20026;-62
2021/06/17 10:31:07;;;;;;;4.05;2.38;;;37.50;47.80;;;;;;4989125;28;20534;-62
2021/06/17 10:33:36;;;;;;;3.90;2.70;;;37.40;45.40;;;;;;4977388;28;20492;-62
2021/06/17 10:36:21;;;;;;;3.50;2.70;;;37.30;45.30;;;;;;4987391;28;20408;-61
2021/06/17 10:39:09;;;;;;;6.07;3.33;;;36.80;46.40;;;;;;4990171;28;20034;-62
2021/06/17 10:41:50;;;;;;;2.80;2.50;;;36.50;46.50;;;;;;4989286;28;20392;-62
2021/06/17 10:44:37;;;;;;;2.58;2.17;;;36.80;46.00;;;;;;4987676;28;20157;-62
2021/06/17 10:47:04;;;;;;;5.68;2.47;;;36.70;47.20;;;;;;4988803;28;20049;-61
2021/06/17 10:49:42;;;;;;;2.65;2.25;;;36.80;46.50;;;;;;4988472;28;20022;-62
2021/06/17 10:52:28;;;;;;;3.58;2.05;;;36.80;45.30;;;;;;4986679;28;20109;-61
2021/06/17 10:55:07;;;;;;;6.45;2.78;;;36.50;46.20;;;;;;4984920;28;20493;-64
2021/06/17 10:57:46;;;;;;;3.92;2.67;;;36.40;45.70;;;;;;4985678;28;20145;-63
2021/06/17 11:00:24;;;;;;;4.65;2.60;;;36.10;46.10;;;;;;4991460;28;20022;-64
2021/06/17 11:03:05;;;;;;;2.45;2.17;;;35.90;47.10;;;;;;4984496;28;20062;-62
2021/06/17 11:05:31;;;;;;;5.88;2.55;;;35.60;46.90;;;;;;4984822;28;20057;-63
2021/06/17 11:08:22;;;;;;;7.80;2.63;;;35.40;46.40;;;;;;4987927;28;20053;-63
2021/06/17 11:11:29;;;;;;;10.40;2.50;;;35.40;49.70;;;;;;4987131;28;20038;-63
2021/06/17 11:13:54;;;;;;;5.03;2.33;;;35.40;48.20;;;;;;4980981;28;20031;-63
2021/06/17 11:16:20;;;;;;;13.15;3.33;;;35.50;48.10;;;;;;4998255;28;20093;-63
2021/06/17 11:19:10;;;;;;;3.17;2.58;;;35.50;47.70;;;;;;4997917;28;20034;-63
2021/06/17 11:21:35;;;;;;;3.78;2.40;;;35.40;48.40;;;;;;5000011;28;20046;-63
2021/06/17 11:24:10;;;;;;;4.30;2.75;;;35.20;49.50;;;;;;4997803;28;20030;-62
2021/06/17 11:26:56;;;;;;;7.72;3.25;;;35.20;49.80;;;;;;4982089;28;20745;-62
2021/06/17 11:29:28;;;;;;;8.57;2.67;;;35.20;49.90;;;;;;4986710;28;20034;-63
2021/06/17 11:31:54;;;;;;;5.75;2.80;;;35.20;50.30;;;;;;4989830;28;20018;-63
2021/06/17 11:34:29;;;;;;;3.90;2.60;;;35.20;49.60;;;;;;4988872;28;20033;-63
2021/06/17 11:37:00;;;;;;;5.03;2.50;;;35.40;48.50;;;;;;4997847;28;20045;-63
2021/06/17 11:39:29;;;;;;;5.65;2.80;;;35.50;48.40;;;;;;4988590;28;20030;-63
2021/06/17 11:41:57;;;;;;;4.45;2.80;;;35.60;50.20;;;;;;4991191;28;20022;-62
2021/06/17 11:44:26;;;;;;;7.43;3.13;;;35.50;49.30;;;;;;4994035;28;20500;-61
2021/06/17 11:47:09;;;;;;;5.85;2.92;;;35.60;48.70;;;;;;4988563;28;20113;-62
2021/06/17 11:49:41;;;;;;;11.32;2.88;;;35.60;48.90;;;;;;4990338;28;20026;-63
2021/06/17 11:52:10;;;;;;;7.93;3.22;;;35.50;50.00;;;;;;4991115;28;20030;-64
2021/06/17 11:55:03;;;;;;;9.52;3.25;;;35.70;50.50;;;;;;4963052;28;20046;-62
2021/06/17 11:57:29;;;;;;;9.00;3.00;;;35.60;49.80;;;;;;4990126;28;20030;-62
2021/06/17 11:59:55;;;;;;;13.20;3.72;;;35.60;50.00;;;;;;5000718;28;20092;-62
2021/06/17 12:02:26;;;;;;;9.02;3.58;;;35.70;50.80;;;;;;5000984;28;20034;-62
2021/06/17 12:05:03;;;;;;;6.90;3.38;;;35.50;50.90;;;;;;4996570;28;20029;-62
2021/06/17 12:10:57;;;;;;;6.90;3.53;;;35.70;50.40;;;;;;4963597;28;20101;-62
2021/06/17 12:13:23;;;;;;;6.95;3.55;;;35.60;50.80;;;;;;4989047;28;20027;-62
2021/06/17 12:15:57;;;;;;;5.45;3.22;;;35.50;51.50;;;;;;4987767;28;20036;-61
2021/06/17 12:18:22;;;;;;;6.47;3.63;;;35.40;50.90;;;;;;4984826;28;20058;-61
2021/06/17 12:20:49;;;;;;;3.72;3.25;;;35.40;51.80;;;;;;4986460;28;21371;-63
2021/06/17 12:23:20;;;;;;;9.93;3.50;;;35.30;53.00;;;;;;4984595;28;20027;-63
2021/06/17 12:26:08;;;;;;;7.28;3.47;;;35.40;51.70;;;;;;4969783;28;20030;-62
2021/06/17 12:28:50;;;;;;;3.95;3.42;;;35.30;51.10;;;;;;4982873;28;20408;-62
2021/06/17 12:31:27;;;;;;;;;;;35.00;51.60;;;;;;4988761;28;20162;-62
2021/06/17 12:34:29;;;;;;;9.35;3.70;;;34.90;52.50;;;;;;4979353;28;19917;-62
2021/06/17 12:37:00;;;;;;;6.22;4.10;;;34.80;53.20;;;;;;4991591;28;20037;-62
2021/06/17 12:39:26;;;;;;;5.88;3.88;;;34.80;52.60;;;;;;4990227;28;20109;-62
2021/06/17 12:41:52;;;;;;;6.60;3.95;;;34.80;51.30;;;;;;4992196;28;20173;-62
2021/06/17 12:44:31;;;;;;;7.93;4.40;;;34.70;51.70;;;;;;4989174;28;20030;-63
2021/06/17 12:46:59;;;;;;;5.25;4.25;;;34.70;51.60;;;;;;4987620;28;20858;-62
2021/06/17 12:52:04;;;;;;;7.20;4.47;;;34.70;51.60;;;;;;4982623;28;20017;-63
2021/06/17 12:54:36;;;;;;;9.73;4.18;;;34.80;51.70;;;;;;4989731;28;20106;-62
2021/06/17 12:57:15;;;;;;;6.65;4.82;;;34.90;50.70;;;;;;4979568;28;20061;-63
2021/06/17 12:59:58;;;;;;;8.32;4.43;;;34.80;50.80;;;;;;4985857;28;20037;-63
2021/06/17 13:02:26;;;;;;;;;;;34.90;52.30;;;;;;4991621;28;20396;-60
2021/06/17 13:05:09;;;;;;;14.32;4.90;;;35.00;51.50;;;;;;4987089;28;20301;-63
2021/06/17 13:07:37;;;;;;;6.07;4.82;;;35.10;52.30;;;;;;4978382;28;20037;-63
2021/06/17 13:10:19;;;;;;;5.28;4.78;;;35.10;52.40;;;;;;4989479;28;20040;-63